Time;durP1;ratioP1;P1;durP2;ratioP2;P2;SDS_P1;SDS_P2;PMS_P1;PMS_P2;Temp;Humidity;BMP_temperature;BMP_pressure;BME280_temperature;BME280_humidity;BME280_pressure;Samples;Min_cycle;Max_cycle;Signal;HPM_P1;HPM_P2
2023/09/03 00:01:05;;;;;;;8.77;3.50;;;17.20;98.80;;;;;;5075481;28;20437;-78
2023/09/03 00:03:32;;;;;;;4.63;3.10;;;17.20;98.30;;;;;;5075763;28;20424;-77
2023/09/03 00:05:59;;;;;;;5.13;3.20;;;17.20;98.00;;;;;;5075313;28;20534;-77
2023/09/03 00:08:27;;;;;;;11.63;4.13;;;17.10;98.20;;;;;;5075808;28;20502;-77
2023/09/03 00:10:54;;;;;;;7.70;3.70;;;17.10;98.30;;;;;;5075458;28;20440;-77
2023/09/03 00:13:22;;;;;;;6.40;3.50;;;17.10;98.60;;;;;;5075322;28;20433;-78
2023/09/03 00:15:51;;;;;;;5.70;3.87;;;17.10;99.10;;;;;;5076026;28;20440;-77
2023/09/03 00:18:18;;;;;;;5.43;3.83;;;17.00;99.10;;;;;;5075535;28;20490;-78
2023/09/03 00:20:56;;;;;;;5.23;3.43;;;17.00;99.10;;;;;;5075294;28;20938;-78
2023/09/03 00:23:23;;;;;;;6.27;4.47;;;17.00;99.20;;;;;;5074469;28;20461;-78
2023/09/03 00:25:50;;;;;;;5.70;3.60;;;17.00;99.30;;;;;;5074982;28;20476;-78
2023/09/03 00:28:17;;;;;;;3.97;2.60;;;17.00;99.40;;;;;;5075397;28;20429;-78
2023/09/03 00:30:44;;;;;;;5.53;3.83;;;17.00;99.10;;;;;;5075351;28;20425;-77
2023/09/03 00:33:12;;;;;;;5.60;3.67;;;16.90;98.50;;;;;;5074687;28;20441;-78
2023/09/03 00:35:40;;;;;;;4.87;3.10;;;16.90;98.20;;;;;;5075178;28;20847;-78
2023/09/03 00:38:08;;;;;;;5.93;3.80;;;16.90;98.10;;;;;;5074986;28;20541;-78
2023/09/03 00:40:39;;;;;;;7.00;4.00;;;16.80;98.00;;;;;;5075089;28;20464;-78
2023/09/03 00:43:06;;;;;;;6.20;4.17;;;16.80;97.90;;;;;;5074400;28;20529;-78
2023/09/03 00:45:34;;;;;;;5.50;3.57;;;16.80;97.80;;;;;;5074672;28;20533;-78
2023/09/03 00:48:02;;;;;;;4.60;3.27;;;16.70;98.00;;;;;;5074722;28;20489;-78
2023/09/03 00:50:35;;;;;;;8.73;3.00;;;16.70;98.30;;;;;;5074446;28;20451;-78
2023/09/03 00:53:06;;;;;;;5.40;3.60;;;16.70;98.70;;;;;;5073741;28;20464;-78
2023/09/03 00:55:33;;;;;;;4.97;3.40;;;16.70;98.30;;;;;;5075075;28;20424;-78
2023/09/03 00:58:01;;;;;;;7.50;3.80;;;16.60;98.40;;;;;;5074538;28;20433;-78
2023/09/03 01:00:28;;;;;;;5.77;3.53;;;16.60;98.20;;;;;;5074181;28;20479;-78
2023/09/03 01:02:55;;;;;;;5.90;3.40;;;16.50;97.90;;;;;;5055096;28;20495;-78
2023/09/03 01:05:22;;;;;;;5.93;4.37;;;16.40;97.80;;;;;;5054709;28;20473;-78
2023/09/03 01:07:57;;;;;;;5.30;3.23;;;16.30;98.00;;;;;;5054563;28;20495;-78
2023/09/03 01:10:38;;;;;;;5.20;3.13;;;16.30;98.40;;;;;;5054291;28;20462;-78
2023/09/03 01:13:15;;;;;;;9.23;3.20;;;16.20;98.60;;;;;;5069767;28;20433;-78
2023/09/03 01:15:45;;;;;;;5.27;3.47;;;16.20;98.60;;;;;;5054359;28;20551;-78
2023/09/03 01:18:17;;;;;;;5.13;3.60;;;16.30;98.40;;;;;;5054181;28;20896;-79
2023/09/03 01:20:54;;;;;;;5.30;3.50;;;16.30;98.20;;;;;;5054025;28;20425;-78
2023/09/03 01:23:33;;;;;;;4.07;2.80;;;16.20;98.30;;;;;;5074651;28;20498;-78
2023/09/03 01:26:16;;;;;;;3.53;2.57;;;16.20;98.60;;;;;;5073981;28;20991;-78
2023/09/03 01:28:45;;;;;;;4.93;3.20;;;16.10;98.80;;;;;;5073974;28;20910;-78
2023/09/03 01:31:16;;;;;;;6.37;3.20;;;16.20;98.90;;;;;;5070122;28;20433;-78
2023/09/03 01:33:45;;;;;;;5.37;3.33;;;16.10;98.50;;;;;;5057415;28;20838;-78
2023/09/03 01:36:14;;;;;;;3.67;2.90;;;16.10;98.40;;;;;;5072677;28;20498;-78
2023/09/03 01:38:41;;;;;;;4.23;2.90;;;16.00;98.50;;;;;;5074042;28;20441;-78
2023/09/03 01:41:09;;;;;;;5.50;3.80;;;16.00;98.60;;;;;;5073691;28;20497;-78
2023/09/03 01:43:36;;;;;;;5.13;3.40;;;16.00;98.40;;;;;;5071947;28;20439;-78
2023/09/03 01:46:09;;;;;;;9.73;6.50;;;16.00;98.80;;;;;;5053607;28;20546;-78
2023/09/03 01:48:51;;;;;;;7.60;4.70;;;16.00;99.00;;;;;;5053860;28;20829;-79
2023/09/03 01:51:26;;;;;;;5.13;3.43;;;15.90;99.20;;;;;;5039619;28;20437;-78
2023/09/03 01:54:00;;;;;;;4.23;2.90;;;15.90;99.40;;;;;;5054250;28;20425;-78
2023/09/03 01:56:29;;;;;;;6.33;3.53;;;15.90;99.90;;;;;;5053920;28;20425;-78
2023/09/03 01:59:00;;;;;;;7.87;3.57;;;15.90;99.90;;;;;;5053177;28;20469;-78
2023/09/03 02:01:32;;;;;;;5.90;3.80;;;16.00;99.90;;;;;;5053704;28;20785;-78
2023/09/03 02:04:00;;;;;;;6.63;4.10;;;16.00;99.90;;;;;;5058571;28;20435;-78
2023/09/03 02:06:27;;;;;;;5.80;3.50;;;16.00;99.90;;;;;;5073102;28;20475;-78
2023/09/03 02:08:54;;;;;;;5.87;3.30;;;16.00;99.90;;;;;;5073398;28;20931;-78
2023/09/03 02:11:21;;;;;;;5.57;2.93;;;16.00;99.90;;;;;;5073254;28;20433;-78
2023/09/03 02:13:50;;;;;;;4.20;2.70;;;16.00;99.90;;;;;;5069755;28;20437;-78
2023/09/03 02:16:17;;;;;;;5.77;3.33;;;16.00;99.90;;;;;;5053225;28;20951;-78
2023/09/03 02:18:45;;;;;;;4.00;3.47;;;16.00;99.90;;;;;;5053534;28;20429;-78
2023/09/03 02:21:14;;;;;;;4.43;2.73;;;16.00;99.90;;;;;;5053329;28;20440;-78
2023/09/03 02:23:41;;;;;;;4.20;2.80;;;16.00;99.90;;;;;;5055169;28;20506;-78
2023/09/03 02:26:09;;;;;;;5.13;3.50;;;16.00;99.60;;;;;;5073411;28;20805;-78
2023/09/03 02:28:37;;;;;;;4.90;3.43;;;16.00;99.80;;;;;;5073155;28;20458;-78
2023/09/03 02:31:04;;;;;;;5.77;4.03;;;15.90;99.90;;;;;;5070908;28;20444;-78
2023/09/03 02:33:31;;;;;;;7.37;3.80;;;15.80;99.90;;;;;;5072978;28;20432;-78
2023/09/03 02:36:00;;;;;;;6.63;4.07;;;15.80;99.90;;;;;;5073251;28;20509;-78
2023/09/03 02:38:27;;;;;;;7.80;3.77;;;15.80;99.90;;;;;;5073002;28;20493;-78
2023/09/03 02:40:54;;;;;;;5.30;3.60;;;15.90;99.90;;;;;;5062817;28;20445;-78
2023/09/03 02:43:21;;;;;;;4.83;2.87;;;15.80;99.90;;;;;;5052868;28;21009;-78
2023/09/03 02:45:48;;;;;;;4.33;3.23;;;15.80;99.90;;;;;;5052788;28;20460;-78
2023/09/03 02:48:19;;;;;;;4.40;3.40;;;15.80;99.90;;;;;;5056275;28;20534;-78
2023/09/03 02:50:48;;;;;;;8.93;3.13;;;15.70;99.90;;;;;;5065657;28;20431;-78
2023/09/03 02:53:17;;;;;;;5.23;3.53;;;15.70;99.90;;;;;;5077227;28;20447;-80
2023/09/03 02:55:44;;;;;;;5.90;3.40;;;15.70;99.90;;;;;;5076878;28;20444;-78
2023/09/03 02:58:11;;;;;;;5.40;3.53;;;15.70;99.90;;;;;;5076631;28;20460;-79
2023/09/03 03:00:43;;;;;;;7.20;2.93;;;15.70;99.90;;;;;;5068893;28;20433;-78
2023/09/03 03:03:10;;;;;;;4.00;2.97;;;15.60;99.90;;;;;;5056864;28;20491;-78
2023/09/03 03:05:37;;;;;;;4.70;3.30;;;15.60;99.90;;;;;;5056464;28;20475;-78
2023/09/03 03:08:05;;;;;;;3.83;2.93;;;15.60;99.90;;;;;;5056449;28;20863;-79
2023/09/03 03:10:34;;;;;;;4.23;3.20;;;15.70;99.90;;;;;;5049868;28;20437;-78
2023/09/03 03:13:00;;;;;;;4.50;3.23;;;15.70;99.90;;;;;;5076469;28;20488;-78
2023/09/03 03:15:35;;;;;;;4.20;3.20;;;15.70;99.90;;;;;;5076522;28;20490;-78
2023/09/03 03:18:02;;;;;;;6.87;3.60;;;15.70;99.90;;;;;;5076344;28;20519;-78
2023/09/03 03:20:29;;;;;;;5.57;3.13;;;15.70;99.90;;;;;;5070630;28;20437;-78
2023/09/03 03:22:57;;;;;;;5.50;3.80;;;15.70;99.90;;;;;;5056670;28;20433;-78
2023/09/03 03:25:24;;;;;;;5.13;3.27;;;15.70;99.90;;;;;;5056570;28;20476;-78
2023/09/03 03:27:52;;;;;;;5.00;3.63;;;15.60;99.90;;;;;;5056259;28;20436;-78
2023/09/03 03:30:19;;;;;;;5.40;3.03;;;15.60;99.90;;;;;;5060043;28;20482;-78
2023/09/03 03:32:46;;;;;;;4.80;3.60;;;15.60;99.90;;;;;;5076445;28;20448;-78
2023/09/03 03:35:13;;;;;;;8.30;3.90;;;15.60;99.90;;;;;;5076451;28;20439;-78
2023/09/03 03:37:40;;;;;;;5.03;3.90;;;15.60;99.90;;;;;;5076325;28;20436;-79
2023/09/03 03:40:09;;;;;;;5.27;3.50;;;15.60;99.90;;;;;;5073497;28;20512;-78
2023/09/03 03:42:37;;;;;;;5.07;3.20;;;15.60;99.90;;;;;;5055948;28;20786;-78
2023/09/03 03:45:09;;;;;;;7.37;4.00;;;15.60;99.90;;;;;;5056174;28;20438;-78
2023/09/03 03:47:38;;;;;;;4.73;3.37;;;15.60;99.90;;;;;;5055850;28;20426;-78
2023/09/03 03:50:06;;;;;;;4.07;3.10;;;15.50;99.90;;;;;;5057162;28;20586;-78
2023/09/03 03:52:33;;;;;;;4.50;3.07;;;15.50;99.90;;;;;;5075750;28;20443;-78
2023/09/03 03:55:00;;;;;;;5.50;3.60;;;15.50;99.90;;;;;;5075771;28;20489;-80
2023/09/03 03:57:27;;;;;;;4.83;3.03;;;15.40;99.90;;;;;;5075791;28;20444;-78
2023/09/03 03:59:54;;;;;;;11.70;3.00;;;15.50;99.90;;;;;;5074767;28;20517;-79
2023/09/03 04:02:22;;;;;;;13.90;3.03;;;15.40;99.90;;;;;;5055602;28;20465;-78
2023/09/03 04:04:53;;;;;;;3.70;2.87;;;15.40;99.90;;;;;;5055615;28;20922;-78
2023/09/03 04:07:20;;;;;;;4.17;2.70;;;15.40;99.80;;;;;;5055369;28;20461;-78
2023/09/03 04:09:51;;;;;;;3.77;2.60;;;15.30;99.80;;;;;;5055552;28;20446;-77
2023/09/03 04:12:24;;;;;;;4.20;2.60;;;15.30;99.90;;;;;;5075453;28;20428;-78
2023/09/03 04:14:51;;;;;;;5.53;3.20;;;15.30;99.90;;;;;;5075518;28;20474;-78
2023/09/03 04:17:20;;;;;;;4.23;3.40;;;15.20;99.90;;;;;;5075665;28;20450;-78
2023/09/03 04:19:48;;;;;;;3.30;2.50;;;15.20;99.90;;;;;;5075585;28;20463;-78
2023/09/03 04:22:15;;;;;;;5.10;3.03;;;15.20;99.80;;;;;;5055834;28;20440;-78
2023/09/03 04:24:42;;;;;;;5.27;3.30;;;15.20;99.90;;;;;;5055189;28;20449;-78
2023/09/03 04:27:24;;;;;;;4.63;3.90;;;15.20;99.90;;;;;;5055339;28;20538;-78
2023/09/03 04:29:51;;;;;;;6.50;3.37;;;15.20;99.90;;;;;;5055358;28;20424;-78
2023/09/03 04:32:21;;;;;;;4.17;3.40;;;15.10;99.70;;;;;;5074408;28;20432;-78
2023/09/03 04:34:50;;;;;;;4.30;2.70;;;15.10;99.80;;;;;;5075283;28;20435;-78
2023/09/03 04:37:17;;;;;;;4.83;2.87;;;15.10;99.60;;;;;;5074926;28;20922;-78
2023/09/03 04:39:45;;;;;;;3.67;3.00;;;15.10;99.70;;;;;;5075222;28;20431;-78
2023/09/03 04:42:12;;;;;;;4.53;3.40;;;15.00;99.80;;;;;;5055901;28;20446;-78
2023/09/03 04:44:39;;;;;;;4.20;3.20;;;15.00;99.90;;;;;;5054814;28;20441;-78
2023/09/03 04:47:06;;;;;;;5.97;3.67;;;15.00;99.90;;;;;;5054660;28;20483;-78
2023/09/03 04:49:33;;;;;;;4.20;2.80;;;15.00;99.80;;;;;;5054872;28;20530;-78
2023/09/03 04:52:02;;;;;;;3.87;2.97;;;14.90;99.80;;;;;;5070743;28;20522;-78
2023/09/03 04:54:31;;;;;;;3.40;2.20;;;14.90;99.90;;;;;;5069114;28;20487;-78
2023/09/03 04:56:58;;;;;;;4.70;2.90;;;14.90;99.90;;;;;;5054759;28;20531;-78
2023/09/03 04:59:25;;;;;;;4.27;3.17;;;15.00;99.90;;;;;;5054709;28;20966;-78
2023/09/03 05:01:52;;;;;;;5.27;3.40;;;15.00;99.90;;;;;;5069032;28;20443;-78
2023/09/03 05:04:19;;;;;;;4.90;2.97;;;15.00;99.90;;;;;;5074184;28;20929;-78
2023/09/03 05:06:46;;;;;;;3.50;2.53;;;15.10;99.40;;;;;;5073101;28;20475;-79
2023/09/03 05:09:17;;;;;;;4.43;2.90;;;15.10;98.50;;;;;;5072274;28;20435;-78
2023/09/03 05:11:44;;;;;;;4.80;3.17;;;15.10;98.80;;;;;;5059763;28;20428;-77
2023/09/03 05:14:11;;;;;;;4.37;3.03;;;15.10;99.50;;;;;;5053552;28;20436;-77
2023/09/03 05:16:39;;;;;;;3.63;3.10;;;15.10;99.60;;;;;;5053614;28;20460;-78
2023/09/03 05:19:06;;;;;;;4.13;2.30;;;15.10;99.70;;;;;;5053495;28;20510;-78
2023/09/03 05:21:33;;;;;;;5.10;3.30;;;15.10;99.70;;;;;;5069043;28;20945;-78
2023/09/03 05:24:01;;;;;;;5.00;2.83;;;15.20;99.50;;;;;;5068515;28;20441;-77
2023/09/03 05:26:29;;;;;;;5.17;2.53;;;15.30;99.50;;;;;;5053442;28;20508;-78
2023/09/03 05:28:56;;;;;;;6.03;3.10;;;15.30;99.60;;;;;;5053297;28;20426;-78
2023/09/03 05:31:23;;;;;;;5.73;3.20;;;15.40;99.40;;;;;;5067525;28;20501;-77
2023/09/03 05:33:50;;;;;;;4.60;3.03;;;15.40;99.20;;;;;;5073077;28;21046;-78
2023/09/03 05:36:17;;;;;;;5.37;3.10;;;15.50;99.20;;;;;;5073358;28;20490;-78
2023/09/03 05:38:44;;;;;;;5.67;3.77;;;15.50;99.20;;;;;;5072893;28;20435;-78
2023/09/03 05:41:11;;;;;;;5.53;3.40;;;15.50;99.30;;;;;;5060365;28;20487;-77
2023/09/03 05:43:40;;;;;;;5.43;3.20;;;15.60;99.40;;;;;;5053176;28;20444;-77
2023/09/03 05:46:09;;;;;;;5.17;4.10;;;15.60;99.20;;;;;;5053082;28;20562;-78
2023/09/03 05:48:36;;;;;;;5.43;3.80;;;15.70;99.20;;;;;;5052823;28;20440;-78
2023/09/03 05:51:04;;;;;;;4.90;3.77;;;15.70;99.20;;;;;;5063741;28;20460;-78
2023/09/03 05:53:36;;;;;;;5.20;3.60;;;15.80;99.40;;;;;;5073023;28;20466;-78
2023/09/03 05:56:07;;;;;;;5.00;3.80;;;15.90;99.50;;;;;;5067888;28;20478;-78
2023/09/03 05:58:34;;;;;;;4.07;3.17;;;16.00;99.70;;;;;;5072331;28;20970;-78
2023/09/03 06:01:27;;;;;;;5.07;3.40;;;16.20;99.80;;;;;;5073062;28;20435;-78
2023/09/03 06:03:54;;;;;;;5.83;3.50;;;16.30;99.60;;;;;;5072608;28;20860;-78
2023/09/03 06:06:21;;;;;;;4.90;3.50;;;16.40;99.90;;;;;;5069890;28;20833;-78
2023/09/03 06:08:48;;;;;;;4.17;3.07;;;16.50;99.90;;;;;;5052857;28;20849;-77
2023/09/03 06:11:18;;;;;;;3.97;3.20;;;16.60;99.90;;;;;;5052957;28;20464;-78
2023/09/03 06:13:45;;;;;;;5.97;3.67;;;16.70;99.60;;;;;;5052880;28;20538;-77
2023/09/03 06:16:13;;;;;;;5.57;3.53;;;16.80;99.70;;;;;;5052732;28;20442;-78
2023/09/03 06:18:41;;;;;;;4.30;3.47;;;17.00;99.70;;;;;;5072646;28;20595;-78
2023/09/03 06:21:08;;;;;;;4.80;2.90;;;17.10;99.40;;;;;;5072312;28;20445;-78
2023/09/03 06:23:35;;;;;;;3.43;2.30;;;17.20;99.10;;;;;;5072315;28;20473;-78
2023/09/03 06:26:02;;;;;;;4.80;3.30;;;17.30;99.20;;;;;;5072145;28;20915;-78
2023/09/03 06:28:29;;;;;;;6.63;3.40;;;17.40;98.50;;;;;;5052451;28;20441;-78
2023/09/03 06:30:58;;;;;;;4.60;3.73;;;17.50;98.40;;;;;;5052616;28;20479;-78
2023/09/03 06:33:27;;;;;;;5.27;3.83;;;17.60;98.40;;;;;;5052266;28;20434;-79
2023/09/03 06:35:54;;;;;;;5.20;4.10;;;17.80;98.40;;;;;;5052109;28;20436;-78
2023/09/03 06:38:23;;;;;;;6.13;3.03;;;17.90;98.20;;;;;;5070058;28;20440;-79
2023/09/03 06:40:53;;;;;;;7.03;3.73;;;18.10;97.70;;;;;;5032119;28;20449;-81
2023/09/03 06:43:20;;;;;;;6.20;4.30;;;18.20;97.30;;;;;;5049053;28;20448;-79
2023/09/03 06:45:48;;;;;;;6.37;4.30;;;18.20;96.60;;;;;;5046343;28;20804;-79
2023/09/03 06:48:15;;;;;;;5.60;3.57;;;18.30;96.90;;;;;;5047836;28;20448;-79
2023/09/03 06:50:44;;;;;;;7.93;3.50;;;18.40;96.60;;;;;;5056557;28;20524;-80
2023/09/03 06:53:12;;;;;;;5.53;3.87;;;18.50;96.00;;;;;;5044296;28;20532;-80
2023/09/03 06:55:39;;;;;;;5.50;3.70;;;18.50;96.20;;;;;;5031955;28;20839;-80
2023/09/03 06:58:06;;;;;;;6.50;3.30;;;18.70;96.50;;;;;;5045510;28;20425;-79
2023/09/03 07:00:35;;;;;;;8.10;3.60;;;18.80;96.10;;;;;;5051404;28;20429;-80
2023/09/03 07:03:06;;;;;;;4.10;2.80;;;19.00;95.80;;;;;;5052179;28;20512;-79
2023/09/03 07:05:38;;;;;;;5.20;3.57;;;19.10;95.10;;;;;;5051403;28;20422;-79
2023/09/03 07:08:07;;;;;;;6.70;3.40;;;19.20;95.10;;;;;;5051447;28;20465;-79
2023/09/03 07:10:34;;;;;;;7.73;3.00;;;19.30;95.50;;;;;;5001113;28;20479;-79
2023/09/03 07:13:06;;;;;;;5.37;3.20;;;19.40;95.30;;;;;;5029910;28;20917;-79
2023/09/03 07:15:33;;;;;;;4.93;3.30;;;19.70;95.80;;;;;;5038595;28;20438;-80
2023/09/03 07:18:05;;;;;;;5.07;3.27;;;20.00;95.00;;;;;;5035397;28;20448;-78
2023/09/03 07:20:32;;;;;;;7.40;3.40;;;20.40;95.10;;;;;;5057819;28;20440;-79
2023/09/03 07:23:00;;;;;;;5.27;4.03;;;20.80;93.40;;;;;;5028798;28;20528;-80
2023/09/03 07:25:30;;;;;;;7.73;4.30;;;21.00;92.20;;;;;;5038973;28;21014;-80
2023/09/03 07:28:01;;;;;;;4.97;3.40;;;21.40;92.40;;;;;;5029114;28;20474;-79
2023/09/03 07:30:30;;;;;;;5.30;3.63;;;21.80;92.30;;;;;;5057919;28;20495;-81
2023/09/03 07:32:57;;;;;;;4.77;3.00;;;22.50;91.60;;;;;;5033040;28;20797;-79
2023/09/03 07:35:24;;;;;;;4.37;3.23;;;23.30;88.50;;;;;;5034930;28;20930;-79
2023/09/03 07:37:51;;;;;;;4.13;2.80;;;24.50;83.90;;;;;;5035678;28;20464;-79
2023/09/03 07:40:20;;;;;;;4.20;2.33;;;25.80;74.90;;;;;;5059390;28;20872;-79
2023/09/03 07:42:48;;;;;;;3.60;2.40;;;27.10;70.40;;;;;;5075847;28;20444;-79
2023/09/03 07:45:16;;;;;;;4.20;2.70;;;28.30;63.10;;;;;;5075266;28;20436;-79
2023/09/03 07:47:43;;;;;;;4.27;2.70;;;29.20;58.80;;;;;;5042734;28;21233;-80
2023/09/03 07:50:11;;;;;;;4.50;2.63;;;29.90;54.70;;;;;;5044191;28;20445;-79
2023/09/03 07:52:38;;;;;;;5.03;2.60;;;30.20;52.80;;;;;;5042437;28;20441;-78
2023/09/03 07:55:06;;;;;;;4.07;2.57;;;30.40;51.60;;;;;;5049933;28;20939;-80
2023/09/03 07:57:35;;;;;;;4.20;2.90;;;30.70;51.10;;;;;;5049828;28;20448;-79
2023/09/03 08:00:04;;;;;;;5.03;2.67;;;31.10;49.70;;;;;;5053079;28;20501;-79
2023/09/03 08:02:32;;;;;;;3.93;2.67;;;31.30;48.50;;;;;;5050069;28;21271;-79
2023/09/03 08:04:59;;;;;;;5.10;2.97;;;31.80;48.80;;;;;;5052520;28;20444;-79
2023/09/03 08:07:30;;;;;;;7.00;2.70;;;32.30;46.00;;;;;;5043177;28;20489;-79
2023/09/03 08:09:57;;;;;;;6.30;2.87;;;33.00;45.50;;;;;;5039977;28;20438;-78
2023/09/03 08:12:24;;;;;;;6.00;2.73;;;33.70;44.00;;;;;;5050561;28;20464;-80
2023/09/03 08:14:51;;;;;;;5.20;2.53;;;34.30;42.70;;;;;;5044999;28;20475;-82
2023/09/03 08:17:21;;;;;;;3.60;2.53;;;35.00;41.50;;;;;;5048582;28;20521;-79
2023/09/03 08:19:48;;;;;;;3.90;2.40;;;35.70;40.00;;;;;;5052203;28;20815;-79
2023/09/03 08:22:16;;;;;;;3.50;2.50;;;36.00;37.30;;;;;;5045822;28;20442;-79
2023/09/03 08:24:43;;;;;;;3.37;2.10;;;36.90;35.50;;;;;;5044703;28;20441;-82
2023/09/03 08:27:12;;;;;;;4.83;2.30;;;38.00;33.80;;;;;;5050762;28;20518;-80
2023/09/03 08:29:39;;;;;;;4.70;2.60;;;39.30;32.70;;;;;;5048735;28;20444;-79
2023/09/03 08:32:09;;;;;;;5.03;2.80;;;40.50;29.80;;;;;;5041306;28;20438;-79
2023/09/03 08:34:38;;;;;;;5.10;2.53;;;41.50;29.10;;;;;;5051239;28;20947;-78
2023/09/03 08:37:05;;;;;;;4.60;2.53;;;42.10;28.10;;;;;;5046372;28;20492;-76
2023/09/03 08:39:32;;;;;;;5.17;2.67;;;42.60;26.60;;;;;;5054559;28;20525;-76
2023/09/03 08:42:02;;;;;;;5.13;2.40;;;42.90;25.80;;;;;;5054434;28;20430;-77
2023/09/03 08:44:35;;;;;;;3.50;2.30;;;43.10;25.70;;;;;;5071033;28;20475;-77
2023/09/03 08:47:04;;;;;;;3.80;2.70;;;43.20;25.40;;;;;;5055277;28;20461;-76
2023/09/03 08:49:34;;;;;;;3.63;2.33;;;43.10;24.40;;;;;;5053874;28;20429;-76
2023/09/03 08:52:02;;;;;;;4.40;2.70;;;42.50;24.40;;;;;;5053856;28;20487;-76
2023/09/03 08:54:35;;;;;;;3.90;2.40;;;42.30;25.10;;;;;;5049156;28;20480;-76
2023/09/03 08:57:03;;;;;;;4.07;2.67;;;42.70;24.40;;;;;;5047938;28;20483;-76
2023/09/03 08:59:30;;;;;;;5.27;2.63;;;43.70;23.80;;;;;;5053128;28;20473;-77
2023/09/03 09:01:59;;;;;;;3.83;2.50;;;44.50;23.30;;;;;;5054689;28;20468;-76
2023/09/03 09:04:30;;;;;;;4.43;3.03;;;45.20;22.80;;;;;;5066196;28;20441;-77
2023/09/03 09:06:58;;;;;;;5.07;2.30;;;45.80;22.80;;;;;;5073872;28;20530;-77
2023/09/03 09:09:29;;;;;;;4.20;2.50;;;46.40;22.50;;;;;;5063689;28;20445;-77
2023/09/03 09:12:02;;;;;;;3.10;2.33;;;46.80;21.80;;;;;;5053539;28;20512;-77
2023/09/03 09:14:41;;;;;;;4.10;2.47;;;47.00;21.10;;;;;;5053824;28;20429;-76
2023/09/03 09:17:14;;;;;;;3.80;2.43;;;47.20;20.60;;;;;;5053434;28;20483;-77
2023/09/03 09:19:41;;;;;;;4.63;2.67;;;47.20;21.10;;;;;;5053913;28;20413;-77
2023/09/03 09:22:08;;;;;;;3.87;2.43;;;47.40;21.00;;;;;;5053188;28;20439;-77
2023/09/03 09:24:43;;;;;;;3.67;2.60;;;47.70;21.10;;;;;;5065824;28;20934;-78
2023/09/03 09:27:17;;;;;;;3.73;2.20;;;48.00;20.80;;;;;;5073121;28;20506;-77
2023/09/03 09:29:45;;;;;;;3.30;2.10;;;48.10;20.00;;;;;;5063246;28;20449;-77
2023/09/03 09:32:19;;;;;;;3.37;2.20;;;48.20;19.80;;;;;;5060054;28;20437;-78
2023/09/03 09:34:51;;;;;;;3.13;1.93;;;48.20;19.60;;;;;;5053166;28;20518;-77
2023/09/03 09:37:18;;;;;;;4.10;2.40;;;47.90;19.70;;;;;;5052715;28;20429;-77
2023/09/03 09:39:48;;;;;;;3.03;1.83;;;47.40;19.70;;;;;;5053413;28;20440;-77
2023/09/03 09:42:18;;;;;;;4.13;2.33;;;47.00;19.80;;;;;;5053128;28;20441;-78
2023/09/03 09:44:58;;;;;;;4.87;2.20;;;46.80;19.90;;;;;;5049259;28;20521;-78
2023/09/03 09:47:47;;;;;;;4.07;2.40;;;46.40;20.60;;;;;;5037506;28;20838;-81
2023/09/03 09:50:14;;;;;;;3.43;2.20;;;46.40;21.30;;;;;;5039248;28;20429;-78
2023/09/03 09:52:41;;;;;;;3.77;2.40;;;46.60;20.50;;;;;;5061558;28;20448;-80
2023/09/03 09:55:17;;;;;;;3.50;2.23;;;46.70;20.20;;;;;;5038662;28;20525;-81
2023/09/03 09:57:50;;;;;;;3.00;2.20;;;47.10;20.50;;;;;;5029072;28;20555;-78
2023/09/03 10:00:32;;;;;;;3.73;1.97;;;47.30;20.40;;;;;;5029063;28;20488;-77
2023/09/03 10:02:59;;;;;;;3.40;1.97;;;47.30;19.60;;;;;;5066445;28;20445;-76
2023/09/03 10:05:26;;;;;;;4.10;2.00;;;47.30;20.40;;;;;;5069102;28;20529;-77
2023/09/03 10:07:57;;;;;;;3.17;1.87;;;47.70;19.70;;;;;;5051901;28;20523;-78
2023/09/03 10:10:25;;;;;;;2.70;1.77;;;48.30;19.60;;;;;;5049384;28;20471;-77
2023/09/03 10:12:53;;;;;;;4.00;2.70;;;48.10;19.40;;;;;;5059883;28;20910;-78
2023/09/03 10:15:28;;;;;;;3.77;2.07;;;47.60;19.30;;;;;;5055535;28;20549;-77
2023/09/03 10:18:00;;;;;;;3.17;1.90;;;47.30;20.20;;;;;;5050823;28;20475;-77
2023/09/03 10:20:29;;;;;;;3.77;1.80;;;47.10;20.00;;;;;;5051034;28;20550;-78
2023/09/03 10:22:57;;;;;;;6.80;2.50;;;47.00;20.10;;;;;;5052693;28;20464;-77
2023/09/03 10:25:30;;;;;;;4.60;2.20;;;47.00;20.40;;;;;;5052526;28;20433;-76
2023/09/03 10:28:03;;;;;;;3.13;2.23;;;46.50;20.60;;;;;;5052429;28;20461;-78
2023/09/03 10:30:33;;;;;;;3.73;2.60;;;46.10;20.80;;;;;;5052592;28;20846;-76
2023/09/03 10:33:03;;;;;;;3.03;1.93;;;45.90;20.90;;;;;;5052393;28;20422;-77
2023/09/03 10:35:30;;;;;;;3.40;2.37;;;45.90;21.00;;;;;;5052532;28;20536;-78
2023/09/03 10:37:57;;;;;;;3.77;2.00;;;45.90;21.30;;;;;;5052038;28;20503;-77
2023/09/03 10:40:28;;;;;;;4.23;2.17;;;45.90;21.10;;;;;;5052350;28;20468;-77
2023/09/03 10:43:24;;;;;;;3.80;2.03;;;45.90;21.00;;;;;;5052487;28;20796;-78
2023/09/03 10:46:05;;;;;;;3.60;2.20;;;45.80;21.00;;;;;;5052029;28;20433;-81
2023/09/03 10:48:34;;;;;;;3.40;2.30;;;45.80;21.10;;;;;;5051863;28;20970;-80
2023/09/03 10:51:01;;;;;;;6.87;2.13;;;45.60;21.20;;;;;;5060154;28;20444;-79
2023/09/03 10:53:36;;;;;;;3.37;1.93;;;45.40;21.40;;;;;;5060003;28;20540;-80
2023/09/03 10:56:09;;;;;;;3.10;1.93;;;45.30;21.20;;;;;;5067110;28;20431;-80
2023/09/03 10:58:36;;;;;;;3.17;2.07;;;45.00;21.50;;;;;;5071782;28;20459;-80
2023/09/03 11:01:19;;;;;;;3.03;1.60;;;44.60;21.50;;;;;;5065648;28;20445;-79
2023/09/03 11:03:48;;;;;;;3.63;1.67;;;44.00;22.50;;;;;;5052097;28;20487;-79
2023/09/03 11:06:16;;;;;;;2.97;1.70;;;43.90;22.70;;;;;;5052045;28;20442;-79
2023/09/03 11:08:43;;;;;;;4.10;2.50;;;44.10;22.60;;;;;;5054410;28;20550;-79
2023/09/03 11:11:18;;;;;;;3.40;2.03;;;44.10;22.40;;;;;;5055897;28;20464;-79
2023/09/03 11:13:49;;;;;;;3.03;1.97;;;44.00;22.80;;;;;;5055666;28;20511;-79
2023/09/03 11:16:16;;;;;;;3.60;1.80;;;43.70;22.90;;;;;;5056143;28;20417;-79
2023/09/03 11:18:49;;;;;;;3.60;2.33;;;43.30;23.20;;;;;;5075214;28;20464;-78
2023/09/03 11:21:16;;;;;;;3.50;1.80;;;42.90;23.60;;;;;;5076042;28;20531;-78
2023/09/03 11:23:59;;;;;;;4.10;1.80;;;42.60;23.60;;;;;;5075947;28;20493;-78
2023/09/03 11:26:28;;;;;;;4.10;2.00;;;42.00;23.80;;;;;;5074982;28;20515;-78
2023/09/03 11:28:58;;;;;;;3.47;1.93;;;41.60;24.60;;;;;;5075232;28;20472;-78
2023/09/03 11:31:25;;;;;;;4.97;2.00;;;41.20;25.10;;;;;;5069837;28;20477;-78
2023/09/03 11:33:55;;;;;;;3.37;1.90;;;41.00;25.80;;;;;;5058138;28;20537;-78
2023/09/03 11:36:25;;;;;;;4.00;2.30;;;40.70;25.70;;;;;;5059937;28;20436;-79
2023/09/03 11:38:52;;;;;;;4.00;1.70;;;40.40;26.00;;;;;;5055125;28;20908;-79
2023/09/03 11:41:19;;;;;;;3.43;2.13;;;40.20;26.20;;;;;;5055265;28;20436;-79
2023/09/03 11:43:48;;;;;;;3.20;1.60;;;40.00;26.30;;;;;;5055168;28;20437;-78
2023/09/03 11:46:17;;;;;;;4.07;2.50;;;39.70;26.50;;;;;;5056579;28;20429;-78
2023/09/03 11:48:50;;;;;;;2.73;1.67;;;39.50;27.00;;;;;;5058022;28;20487;-78
2023/09/03 11:51:26;;;;;;;3.43;1.93;;;39.40;27.00;;;;;;5062927;28;20500;-78
2023/09/03 11:53:54;;;;;;;4.23;1.70;;;39.10;26.70;;;;;;5075321;28;20801;-78
2023/09/03 11:56:22;;;;;;;4.10;1.97;;;38.80;27.40;;;;;;5074787;28;20439;-79
2023/09/03 11:58:57;;;;;;;3.00;2.20;;;38.50;27.40;;;;;;5074667;28;21054;-78
2023/09/03 12:01:25;;;;;;;3.37;2.30;;;38.40;27.80;;;;;;5074175;28;20464;-78
2023/09/03 12:03:53;;;;;;;4.50;1.97;;;38.10;28.00;;;;;;5068698;28;20975;-78
2023/09/03 12:06:21;;;;;;;3.03;1.90;;;37.80;28.50;;;;;;5053852;28;20814;-78
2023/09/03 12:08:50;;;;;;;2.90;1.83;;;37.60;29.20;;;;;;5054493;28;20484;-78
2023/09/03 12:11:17;;;;;;;3.00;2.00;;;37.40;29.80;;;;;;5051352;28;20487;-78
2023/09/03 12:13:44;;;;;;;3.33;2.20;;;37.40;29.20;;;;;;5055115;28;20455;-80
2023/09/03 12:16:23;;;;;;;3.67;1.73;;;37.30;29.70;;;;;;5043322;28;20460;-75
2023/09/03 12:18:58;;;;;;;3.37;2.17;;;37.10;29.80;;;;;;5069613;28;20451;-84
2023/09/03 12:21:33;;;;;;;2.97;1.80;;;36.90;30.50;;;;;;5073885;28;20550;-77
2023/09/03 12:24:03;;;;;;;3.93;2.47;;;36.80;31.00;;;;;;5073042;28;20923;-77
2023/09/03 12:26:31;;;;;;;3.47;2.10;;;36.60;30.40;;;;;;5050652;28;20462;-77
2023/09/03 12:29:00;;;;;;;4.13;2.00;;;36.50;30.00;;;;;;5048912;28;20612;-77
2023/09/03 12:31:41;;;;;;;4.43;1.97;;;36.30;30.60;;;;;;5051348;28;20520;-77
2023/09/03 12:34:09;;;;;;;4.27;2.20;;;36.10;31.60;;;;;;5057220;28;20497;-77
2023/09/03 12:36:54;;;;;;;4.80;2.20;;;36.00;32.10;;;;;;5052778;28;20461;-77
2023/09/03 12:39:29;;;;;;;3.40;1.70;;;35.90;32.70;;;;;;5052886;28;20958;-77
2023/09/03 12:41:56;;;;;;;5.20;2.07;;;35.70;32.20;;;;;;5074109;28;20459;-77
2023/09/03 12:44:23;;;;;;;6.07;2.50;;;35.50;32.30;;;;;;5049706;28;20443;-77
2023/09/03 12:46:54;;;;;;;3.77;2.27;;;35.40;33.10;;;;;;5049892;28;20784;-76
2023/09/03 12:49:27;;;;;;;4.93;2.10;;;35.20;33.10;;;;;;5048520;28;20484;-77
2023/09/03 12:51:55;;;;;;;3.00;1.60;;;35.10;33.50;;;;;;5060741;28;20446;-77
2023/09/03 12:54:22;;;;;;;3.63;1.70;;;34.90;33.50;;;;;;5060860;28;20498;-77
2023/09/03 12:56:53;;;;;;;4.27;2.07;;;34.80;33.60;;;;;;5053741;28;20498;-75